Time;durP1;ratioP1;P1;durP2;ratioP2;P2;SDS_P1;SDS_P2;PMS_P1;PMS_P2;Temp;Humidity;BMP_temperature;BMP_pressure;BME280_temperature;BME280_humidity;BME280_pressure;Samples;Min_cycle;Max_cycle;Signal;HPM_P1;HPM_P2
2023/04/28 00:01:15;;;;;;;5.05;2.83;;;;;;;8.63;48.21;101804.91;5135159;27;20068;-44
2023/04/28 00:03:41;;;;;;;9.68;2.78;;;;;;;8.60;48.14;101807.63;5122407;27;20086;-45
2023/04/28 00:06:06;;;;;;;7.30;3.00;;;;;;;8.57;48.18;101799.84;5125644;27;20424;-49
2023/04/28 00:08:32;;;;;;;8.48;2.95;;;;;;;8.47;48.79;101799.28;5127530;27;20056;-46
2023/04/28 00:10:58;;;;;;;6.32;2.50;;;;;;;8.42;48.66;101796.78;5121886;27;20118;-47
2023/04/28 00:13:23;;;;;;;8.68;2.85;;;;;;;8.37;48.54;101796.94;5122997;27;20598;-49
2023/04/28 00:15:51;;;;;;;10.20;3.63;;;;;;;8.32;48.58;101798.00;5128006;27;20510;-43
2023/04/28 00:18:17;;;;;;;7.63;3.47;;;;;;;8.31;49.21;101796.28;5122944;27;20052;-43
2023/04/28 00:20:43;;;;;;;9.25;2.92;;;;;;;8.28;49.12;101799.00;5129530;27;20046;-43
2023/04/28 00:23:08;;;;;;;5.47;2.63;;;;;;;8.26;49.29;101790.31;5124436;27;20061;-43
2023/04/28 00:25:34;;;;;;;4.95;2.40;;;;;;;8.26;49.32;101787.69;5123389;27;20068;-43
2023/04/28 00:28:00;;;;;;;4.70;2.92;;;;;;;8.23;49.41;101783.41;5122936;27;20761;-44
2023/04/28 00:30:26;;;;;;;7.55;3.25;;;;;;;8.18;49.30;101780.06;5127242;27;20072;-43
2023/04/28 00:32:51;;;;;;;7.13;2.85;;;;;;;8.18;49.02;101780.06;5124777;27;20431;-44
2023/04/28 00:35:17;;;;;;;9.23;2.75;;;;;;;8.18;49.29;101780.94;5125531;27;20050;-46
2023/04/28 00:37:43;;;;;;;6.57;3.10;;;;;;;8.17;49.46;101778.34;5129767;27;20062;-46
2023/04/28 00:40:09;;;;;;;8.57;3.25;;;;;;;8.13;49.71;101772.34;5105828;27;20087;-44
2023/04/28 00:42:35;;;;;;;6.82;4.65;;;;;;;8.06;49.94;101776.06;5135024;27;20075;-46
2023/04/28 00:45:04;;;;;;;8.30;3.33;;;;;;;8.01;49.66;101777.97;5133663;27;21306;-46
2023/04/28 00:47:32;;;;;;;6.18;2.67;;;;;;;8.00;49.81;101774.50;5126458;27;20065;-46
2023/04/28 00:49:59;;;;;;;6.10;2.58;;;;;;;7.96;49.69;101777.25;5128207;27;20049;-48
2023/04/28 00:52:25;;;;;;;7.80;2.88;;;;;;;7.93;49.96;101773.84;5127619;27;20194;-46
2023/04/28 00:54:50;;;;;;;6.32;3.08;;;;;;;7.90;49.95;101776.53;5130570;27;20047;-44
2023/04/28 00:57:16;;;;;;;7.65;3.35;;;;;;;7.90;49.85;101778.28;5120001;27;20068;-44
2023/04/28 00:59:41;;;;;;;5.07;2.72;;;;;;;7.88;50.00;101774.84;5131127;27;20108;-45
2023/04/28 01:02:07;;;;;;;5.70;3.05;;;;;;;7.88;50.22;101773.09;5121651;27;20532;-47
2023/04/28 01:04:34;;;;;;;4.93;2.70;;;;;;;7.84;50.25;101775.88;5125128;27;20060;-47
2023/04/28 01:07:01;;;;;;;5.95;3.22;;;;;;;7.79;49.82;101778.59;5117845;27;20104;-46
2023/04/28 01:09:26;;;;;;;4.47;2.72;;;;;;;7.76;50.42;101778.72;5123419;27;20048;-43
2023/04/28 01:11:52;;;;;;;7.57;3.55;;;;;;;7.72;50.50;101771.84;5126761;27;20139;-45
2023/04/28 01:14:17;;;;;;;6.68;3.25;;;;;;;7.69;50.71;101771.91;5126224;27;20078;-44
2023/04/28 01:16:43;;;;;;;8.68;3.00;;;;;;;7.62;50.67;101769.50;5127176;27;20044;-49
2023/04/28 01:19:21;;;;;;;6.20;3.78;;;;;;;7.65;50.73;101770.28;5131822;27;20094;-47
2023/04/28 01:21:47;;;;;;;6.68;3.25;;;;;;;7.66;50.63;101769.38;5125861;27;20512;-46
2023/04/28 01:24:12;;;;;;;9.40;4.53;;;;;;;7.67;50.62;101778.97;5127076;27;20549;-45
2023/04/28 01:26:38;;;;;;;7.97;3.38;;;;;;;7.69;50.66;101777.16;5124711;27;20076;-44
2023/04/28 01:29:03;;;;;;;6.28;3.35;;;;;;;7.68;50.50;101770.19;5119759;27;20522;-48
2023/04/28 01:31:29;;;;;;;6.78;3.50;;;;;;;7.57;50.85;101768.75;5127426;27;20494;-47
2023/04/28 01:33:55;;;;;;;8.05;3.63;;;;;;;7.56;50.83;101767.03;5130552;27;20081;-45
2023/04/28 01:36:22;;;;;;;8.02;3.45;;;;;;;7.57;50.87;101763.50;5125875;27;20418;-45
2023/04/28 01:38:49;;;;;;;7.32;3.40;;;;;;;7.57;51.02;101763.50;5123623;27;20049;-45
2023/04/28 01:41:15;;;;;;;10.43;3.42;;;;;;;7.56;51.15;101760.94;5120647;27;20056;-44
2023/04/28 01:43:42;;;;;;;7.25;3.42;;;;;;;7.56;50.80;101764.41;5124980;27;20072;-47
2023/04/28 01:46:08;;;;;;;10.65;4.20;;;;;;;7.55;51.01;101760.06;5118853;27;20204;-50
2023/04/28 01:48:34;;;;;;;10.15;3.55;;;;;;;7.49;51.15;101762.84;5130806;27;20061;-44
2023/04/28 01:50:59;;;;;;;7.47;3.83;;;;;;;7.38;51.14;101760.56;5128347;27;20038;-42
2023/04/28 01:53:25;;;;;;;5.43;3.00;;;;;;;7.36;51.15;101759.75;5130789;27;20064;-44
2023/04/28 01:55:50;;;;;;;6.57;3.35;;;;;;;7.37;51.03;101760.59;5122717;27;20071;-43
2023/04/28 01:58:16;;;;;;;6.95;3.25;;;;;;;7.35;51.31;101757.16;5130774;27;20094;-46
2023/04/28 02:00:41;;;;;;;8.23;3.13;;;;;;;7.38;51.55;101759.69;5130594;27;20077;-45
2023/04/28 02:03:07;;;;;;;10.35;3.33;;;;;;;7.35;51.35;101760.66;5124961;27;20063;-46
2023/04/28 02:05:32;;;;;;;5.93;3.45;;;;;;;7.29;51.41;101759.06;5131208;27;20431;-43
2023/04/28 02:07:58;;;;;;;10.55;4.07;;;;;;;7.26;51.34;101753.91;5132329;27;20068;-47
2023/04/28 02:10:23;;;;;;;8.63;3.65;;;;;;;7.26;51.27;101748.66;5123277;27;20055;-46
2023/04/28 02:12:49;;;;;;;10.82;3.83;;;;;;;7.30;51.11;101749.44;5135117;27;20064;-44
2023/04/28 02:15:15;;;;;;;10.95;4.05;;;;;;;7.35;51.43;101751.91;5127178;27;20057;-46
2023/04/28 02:17:41;;;;;;;7.30;4.03;;;;;;;7.33;51.21;101744.97;5129057;27;20058;-46
2023/04/28 02:20:07;;;;;;;8.65;3.83;;;;;;;7.29;51.37;101751.22;5132994;27;20055;-48
2023/04/28 02:22:32;;;;;;;10.20;4.32;;;;;;;7.26;51.53;101750.44;5129662;27;21281;-43
2023/04/28 02:24:58;;;;;;;8.45;4.25;;;;;;;7.25;51.32;101752.19;5133070;27;20053;-44
2023/04/28 02:27:23;;;;;;;8.07;3.83;;;;;;;7.25;51.33;101751.34;5125522;27;20165;-51
2023/04/28 02:29:49;;;;;;;9.70;4.90;;;;;;;7.24;51.28;101740.00;5117783;27;20055;-49
2023/04/28 02:32:14;;;;;;;10.18;4.47;;;;;;;7.24;51.33;101740.00;5126665;27;20070;-43
2023/04/28 02:34:40;;;;;;;9.45;5.30;;;;;;;7.26;51.26;101743.44;5110812;27;20256;-46
2023/04/28 02:37:06;;;;;;;11.35;5.43;;;;;;;7.26;51.62;101748.66;5136679;27;20044;-45
2023/04/28 02:39:32;;;;;;;246.48;92.55;;;;;;;7.26;51.89;101748.66;5130803;27;20254;-45
2023/04/28 02:41:58;;;;;;;26.25;11.73;;;;;;;7.30;51.56;101747.69;5130881;27;20100;-45
2023/04/28 02:44:23;;;;;;;12.10;4.97;;;;;;;7.27;51.57;101749.50;5112744;27;20069;-44
2023/04/28 02:46:49;;;;;;;11.75;5.22;;;;;;;7.24;51.44;101749.63;5127011;27;20067;-45
2023/04/28 02:49:15;;;;;;;13.45;5.60;;;;;;;7.20;51.98;101746.22;5119408;27;21036;-46
2023/04/28 02:51:40;;;;;;;14.73;5.75;;;;;;;7.20;51.71;101742.75;5126067;27;20046;-44
2023/04/28 02:54:06;;;;;;;13.70;5.45;;;;;;;7.20;51.97;101746.22;5131442;27;20056;-43
2023/04/28 02:56:32;;;;;;;7.88;5.00;;;;;;;7.20;51.72;101746.22;5128631;27;20048;-43
2023/04/28 02:58:57;;;;;;;10.57;5.82;;;;;;;7.20;51.93;101745.38;5127592;27;20058;-45
2023/04/28 03:01:23;;;;;;;15.60;7.10;;;;;;;7.11;52.01;101746.47;5129309;27;20882;-49
2023/04/28 03:03:48;;;;;;;17.10;6.75;;;;;;;7.08;52.20;101750.03;5120213;27;20087;-45
2023/04/28 03:06:14;;;;;;;15.38;5.80;;;;;;;7.05;52.40;101744.88;5124953;27;20532;-44
2023/04/28 03:08:40;;;;;;;14.65;6.03;;;;;;;7.01;52.45;101746.72;5123122;27;20549;-46
2023/04/28 03:11:05;;;;;;;11.57;6.10;;;;;;;6.98;52.32;101738.94;5129576;27;20144;-44
2023/04/28 03:13:31;;;;;;;14.38;6.00;;;;;;;7.00;52.49;101731.06;5125011;27;20058;-44
2023/04/28 03:15:56;;;;;;;13.63;5.93;;;;;;;7.04;52.48;101729.19;5125106;27;20038;-43
2023/04/28 03:18:22;;;;;;;13.65;5.68;;;;;;;7.01;52.47;101733.66;5129137;27;20498;-43
2023/04/28 03:20:48;;;;;;;12.02;5.85;;;;;;;6.99;52.09;101730.22;5127947;27;20056;-44
2023/04/28 03:23:13;;;;;;;9.70;5.07;;;;;;;6.93;52.45;101729.50;5129490;27;20106;-47
2023/04/28 03:25:38;;;;;;;13.57;5.50;;;;;;;6.89;52.73;101733.94;5127838;27;20724;-43
2023/04/28 03:28:04;;;;;;;71.65;32.17;;;;;;;6.89;52.84;101727.88;5105504;27;20571;-46
2023/04/28 03:30:30;;;;;;;40.13;18.40;;;;;;;6.85;52.86;101733.19;5128717;27;20052;-44
2023/04/28 03:32:55;;;;;;;26.27;10.55;;;;;;;6.82;52.95;101730.63;5130532;27;20146;-48
2023/04/28 03:35:21;;;;;;;16.08;6.47;;;;;;;6.76;53.14;101717.72;5124510;27;20054;-43
2023/04/28 03:37:47;;;;;;;9.27;5.22;;;;;;;6.78;53.09;101721.16;5127769;27;20051;-43
2023/04/28 03:40:12;;;;;;;14.45;6.03;;;;;;;6.76;53.19;101717.72;5128042;27;20064;-44
2023/04/28 03:42:37;;;;;;;11.02;6.00;;;;;;;6.75;53.04;101715.13;5122786;27;20068;-46
2023/04/28 03:45:03;;;;;;;11.18;5.47;;;;;;;6.78;53.12;101721.16;5119928;27;20048;-48
2023/04/28 03:47:29;;;;;;;15.82;5.78;;;;;;;6.78;53.20;101725.53;5121905;27;20165;-44
2023/04/28 03:49:54;;;;;;;14.40;6.65;;;;;;;6.77;52.97;101719.44;5124336;27;20106;-43
2023/04/28 03:52:20;;;;;;;11.93;5.82;;;;;;;6.79;52.76;101729.88;5127727;27;20086;-44
2023/04/28 03:54:45;;;;;;;13.30;5.25;;;;;;;6.78;52.77;101723.78;5131665;27;20057;-43
2023/04/28 03:57:11;;;;;;;15.75;7.88;;;;;;;6.76;52.75;101717.72;5122359;27;20057;-45
2023/04/28 03:59:36;;;;;;;64.25;27.38;;;;;;;6.75;52.98;101722.97;5133170;27;20050;-50
2023/04/28 04:02:02;;;;;;;25.48;13.05;;;;;;;6.77;53.08;101718.56;5125397;27;20548;-45
2023/04/28 04:04:28;;;;;;;16.75;7.70;;;;;;;6.79;52.89;101725.50;5121699;27;20055;-46
2023/04/28 04:06:53;;;;;;;13.43;6.72;;;;;;;6.77;53.10;101723.81;5130340;27;20068;-45
2023/04/28 04:09:19;;;;;;;18.80;7.25;;;;;;;6.77;52.87;101723.81;5124503;27;20065;-48
2023/04/28 04:11:44;;;;;;;15.40;7.20;;;;;;;6.80;52.99;101715.88;5123339;27;20074;-47
2023/04/28 04:14:09;;;;;;;17.00;6.75;;;;;;;6.82;53.03;101722.78;5132659;27;20136;-44
2023/04/28 04:16:35;;;;;;;20.95;7.88;;;;;;;6.81;52.82;101720.22;5120559;27;20052;-49
2023/04/28 04:19:01;;;;;;;13.55;6.47;;;;;;;6.82;53.11;101719.31;5127037;27;20066;-47
2023/04/28 04:21:26;;;;;;;15.90;7.28;;;;;;;6.84;52.70;101720.16;5128032;27;20191;-43
2023/04/28 04:23:52;;;;;;;12.25;5.75;;;;;;;6.86;52.75;101726.19;5121102;27;20524;-45
2023/04/28 04:26:18;;;;;;;11.65;5.93;;;;;;;6.83;53.07;101734.13;5127034;27;20438;-45
2023/04/28 04:28:43;;;;;;;14.80;6.45;;;;;;;6.80;53.18;101728.97;5128659;27;20059;-43
2023/04/28 04:31:09;;;;;;;14.68;6.50;;;;;;;6.76;53.60;101724.72;5112504;27;20069;-48
2023/04/28 04:33:36;;;;;;;12.02;5.47;;;;;;;6.77;53.20;101724.69;5125623;27;20099;-45
2023/04/28 04:36:01;;;;;;;13.10;6.60;;;;;;;6.79;53.05;101727.25;5123187;27;20158;-45
2023/04/28 04:38:27;;;;;;;13.65;6.30;;;;;;;6.83;53.58;101727.13;5121161;27;20208;-44
2023/04/28 04:40:52;;;;;;;13.95;6.97;;;;;;;6.88;53.54;101721.78;5127140;27;20466;-44
2023/04/28 04:43:18;;;;;;;27.05;10.70;;;;;;;6.96;53.41;101725.06;5121547;27;20329;-44
2023/04/28 04:45:44;;;;;;;14.50;6.30;;;;;;;7.00;53.06;101725.81;5117135;27;20056;-46
2023/04/28 04:48:10;;;;;;;23.98;6.93;;;;;;;7.05;53.28;101723.06;5126727;27;20063;-45
2023/04/28 04:50:35;;;;;;;15.73;6.95;;;;;;;7.05;53.14;101717.84;5125866;27;20058;-47
2023/04/28 04:53:01;;;;;;;19.60;7.10;;;;;;;7.07;53.16;101713.41;5121135;27;20068;-44
2023/04/28 04:55:26;;;;;;;12.95;6.45;;;;;;;7.11;53.25;101712.44;5122024;27;20145;-44
2023/04/28 04:57:52;;;;;;;21.75;7.15;;;;;;;7.13;53.25;101711.50;5120284;27;20170;-45
2023/04/28 05:00:18;;;;;;;16.73;7.20;;;;;;;7.18;53.22;101714.00;5134376;27;20057;-44
2023/04/28 05:02:43;;;;;;;16.60;6.45;;;;;;;7.21;53.46;101705.19;5127129;27;20076;-42
2023/04/28 05:05:08;;;;;;;15.13;6.38;;;;;;;7.23;53.23;101716.50;5124431;27;20041;-44
2023/04/28 05:07:34;;;;;;;14.63;6.50;;;;;;;7.25;53.57;101707.69;5122764;27;20065;-43
2023/04/28 05:10:00;;;;;;;12.15;6.30;;;;;;;7.26;53.73;101712.03;5129900;27;20082;-44
2023/04/28 05:12:25;;;;;;;15.85;8.13;;;;;;;7.29;53.61;101701.47;5123511;27;20093;-42
2023/04/28 05:14:51;;;;;;;13.25;7.10;;;;;;;7.34;53.72;101709.19;5134153;27;20108;-43
2023/04/28 05:17:16;;;;;;;17.80;6.50;;;;;;;7.39;53.69;101706.41;5124944;27;20499;-43
2023/04/28 05:19:42;;;;;;;16.70;7.15;;;;;;;7.41;54.16;101700.22;5133335;27;20043;-44
2023/04/28 05:22:07;;;;;;;20.10;7.45;;;;;;;7.49;53.91;101694.78;5132884;27;20151;-42
2023/04/28 05:24:32;;;;;;;15.75;6.53;;;;;;;7.55;53.63;101691.97;5125502;27;20133;-43
2023/04/28 05:26:58;;;;;;;13.02;5.80;;;;;;;7.61;53.64;101691.81;5129095;27;20069;-43
2023/04/28 05:29:24;;;;;;;14.20;5.55;;;;;;;7.66;53.59;101691.66;5118152;27;20475;-44
2023/04/28 05:31:49;;;;;;;12.63;5.55;;;;;;;7.71;53.44;101694.13;5127029;27;20605;-43
2023/04/28 05:34:15;;;;;;;16.00;5.22;;;;;;;7.76;53.21;101692.25;5134722;27;20134;-42
2023/04/28 05:36:40;;;;;;;13.60;5.60;;;;;;;7.82;53.17;101691.19;5127919;27;20051;-44
2023/04/28 05:39:06;;;;;;;13.73;6.75;;;;;;;7.86;53.29;101691.03;5125626;27;20130;-42
2023/04/28 05:41:33;;;;;;;25.85;11.07;;;;;;;7.92;52.90;101688.25;5127826;27;20044;-43
2023/04/28 05:43:59;;;;;;;13.52;5.82;;;;;;;7.97;52.93;101692.47;5132958;27;20080;-46
2023/04/28 05:46:24;;;;;;;13.90;6.50;;;;;;;7.97;53.14;101682.84;5124060;27;20532;-42
2023/04/28 05:48:50;;;;;;;11.38;5.45;;;;;;;7.99;52.83;101680.16;5101856;27;20069;-45
2023/04/28 05:51:15;;;;;;;20.50;5.75;;;;;;;8.05;52.61;101680.00;5126898;27;21032;-43
2023/04/28 05:53:41;;;;;;;11.70;5.13;;;;;;;8.13;52.71;101677.97;5134036;27;20140;-44
2023/04/28 05:56:07;;;;;;;16.98;5.28;;;;;;;8.21;52.47;101683.84;5133257;27;20049;-44
2023/04/28 05:58:32;;;;;;;16.52;6.22;;;;;;;8.27;52.35;101679.28;5128743;27;20054;-43
2023/04/28 06:00:58;;;;;;;13.80;5.57;;;;;;;8.35;52.44;101682.50;5127414;27;20039;-43
2023/04/28 06:03:24;;;;;;;12.45;6.13;;;;;;;8.39;52.23;101684.13;5129030;27;20074;-43
2023/04/28 06:05:50;;;;;;;29.00;13.48;;;;;;;8.43;52.14;101675.22;5124411;27;21817;-43
2023/04/28 06:08:16;;;;;;;25.20;11.10;;;;;;;8.44;52.32;101676.09;5124253;27;20084;-44
2023/04/28 06:10:41;;;;;;;16.15;7.03;;;;;;;8.40;52.55;101680.56;5123423;27;20045;-44
2023/04/28 06:13:08;;;;;;;21.23;6.82;;;;;;;8.52;52.17;101680.22;5117727;27;20056;-44
2023/04/28 06:15:33;;;;;;;11.23;6.38;;;;;;;8.60;52.08;101679.09;5126872;27;20052;-42
2023/04/28 06:17:59;;;;;;;14.00;5.93;;;;;;;8.65;51.99;101685.03;5129168;27;20049;-42
2023/04/28 06:20:25;;;;;;;10.18;5.63;;;;;;;8.68;51.91;101679.69;5124939;27;20059;-43
2023/04/28 06:22:50;;;;;;;12.82;5.22;;;;;;;8.73;51.81;101676.91;5129053;27;20069;-43
2023/04/28 06:25:15;;;;;;;11.55;5.95;;;;;;;8.79;51.82;101672.28;5112587;27;20709;-43
2023/04/28 06:27:41;;;;;;;13.48;5.40;;;;;;;8.85;51.99;101665.97;5135857;27;20558;-43
2023/04/28 06:30:07;;;;;;;14.18;6.75;;;;;;;8.90;51.68;101663.16;5121800;27;20625;-43
2023/04/28 06:32:32;;;;;;;10.18;4.88;;;;;;;8.93;51.62;101663.91;5128509;27;20079;-42
2023/04/28 06:34:58;;;;;;;11.05;5.28;;;;;;;8.98;51.58;101666.38;5127730;27;20517;-45
2023/04/28 06:37:23;;;;;;;8.60;3.30;;;;;;;8.98;51.85;101667.22;5127836;27;20044;-43
2023/04/28 06:39:49;;;;;;;12.52;4.97;;;;;;;9.03;51.98;101664.44;5115011;27;20133;-43
2023/04/28 06:42:17;;;;;;;12.52;4.28;;;;;;;9.07;51.56;101655.53;5125010;27;20065;-43
2023/04/28 06:44:43;;;;;;;11.02;4.80;;;;;;;9.14;51.62;101656.16;5131129;27;20270;-43
2023/04/28 06:47:09;;;;;;;9.23;4.28;;;;;;;9.20;51.40;101658.59;5125346;27;20049;-43
2023/04/28 06:49:34;;;;;;;14.32;4.70;;;;;;;9.26;51.16;101655.72;5120593;27;20051;-43
2023/04/28 06:52:00;;;;;;;7.00;3.83;;;;;;;9.35;51.06;101654.50;5104807;27;20527;-44
2023/04/28 06:54:25;;;;;;;8.60;4.80;;;;;;;9.37;50.93;101650.06;5129130;27;20060;-43
2023/04/28 06:56:51;;;;;;;9.27;4.22;;;;;;;9.43;50.59;101654.22;5131156;27;20116;-46
2023/04/28 06:59:16;;;;;;;10.32;4.30;;;;;;;9.50;50.83;101649.56;5126206;27;20046;-44
2023/04/28 07:01:42;;;;;;;9.23;5.38;;;;;;;9.53;50.85;101652.09;5129700;27;20036;-44
2023/04/28 07:04:07;;;;;;;7.78;3.80;;;;;;;9.58;50.56;101655.41;5132241;27;20041;-42
2023/04/28 07:06:33;;;;;;;7.78;4.47;;;;;;;9.61;50.55;101644.75;5126309;27;20058;-43
2023/04/28 07:08:58;;;;;;;10.63;3.78;;;;;;;9.67;50.56;101643.69;5127083;27;20050;-43
2023/04/28 07:11:24;;;;;;;13.35;5.10;;;;;;;9.72;50.53;101642.59;5129791;27;20053;-43
2023/04/28 07:13:50;;;;;;;15.60;6.65;;;;;;;9.76;50.24;101638.88;5132566;27;20060;-43
2023/04/28 07:16:17;;;;;;;19.98;7.03;;;;;;;9.86;50.05;101638.53;5130195;27;20195;-44
2023/04/28 07:18:42;;;;;;;11.05;5.68;;;;;;;9.92;50.17;101627.75;5132458;27;20720;-44
2023/04/28 07:21:08;;;;;;;9.20;4.43;;;;;;;9.99;50.08;101634.50;5123017;27;20042;-46
2023/04/28 07:23:33;;;;;;;7.93;3.88;;;;;;;10.03;49.89;101625.56;5114062;27;20059;-43
2023/04/28 07:25:59;;;;;;;7.90;3.90;;;;;;;10.11;49.76;101616.47;5115882;27;20049;-44
2023/04/28 07:28:25;;;;;;;7.68;4.07;;;;;;;10.16;49.35;101620.63;5127421;27;20062;-43
2023/04/28 07:30:50;;;;;;;15.10;5.97;;;;;;;10.22;49.25;101619.50;5133075;27;20045;-44
2023/04/28 07:33:16;;;;;;;7.78;4.65;;;;;;;10.28;49.25;101616.63;5133319;27;20060;-42
2023/04/28 07:35:42;;;;;;;7.30;3.70;;;;;;;10.32;49.11;101610.34;5129617;27;20154;-46
2023/04/28 07:38:07;;;;;;;6.03;3.10;;;;;;;10.41;48.70;101602.97;5126226;27;20509;-44
2023/04/28 07:40:33;;;;;;;9.68;2.63;;;;;;;10.47;48.58;101603.56;5128473;27;20430;-45
2023/04/28 07:42:58;;;;;;;8.05;3.45;;;;;;;10.55;48.32;101600.59;5126535;27;20059;-44
2023/04/28 07:45:24;;;;;;;7.28;3.42;;;;;;;10.63;48.00;101601.13;5116333;27;20383;-43
2023/04/28 07:47:49;;;;;;;6.95;2.70;;;;;;;10.73;47.92;101598.09;5125475;27;20061;-43
2023/04/28 07:50:16;;;;;;;7.13;1.75;;;;;;;10.79;47.04;101601.28;5132847;27;20068;-44
2023/04/28 07:52:41;;;;;;;5.03;2.28;;;;;;;10.86;46.74;101587.88;5129544;27;20152;-44
2023/04/28 07:55:07;;;;;;;3.67;1.95;;;;;;;10.92;46.53;101587.56;5128062;27;20155;-43
2023/04/28 07:57:33;;;;;;;8.05;2.00;;;;;;;10.95;45.84;101583.03;5135487;27;20046;-45
2023/04/28 07:59:58;;;;;;;6.13;1.75;;;;;;;11.03;45.52;101585.31;5128922;27;20149;-45
2023/04/28 08:02:24;;;;;;;6.15;1.88;;;;;;;11.09;44.97;101582.38;5113325;27;20603;-42
2023/04/28 08:04:50;;;;;;;5.65;2.97;;;;;;;11.16;44.65;101574.22;5124483;27;20045;-44
2023/04/28 08:07:15;;;;;;;8.00;2.03;;;;;;;11.24;44.43;101582.59;5119799;27;20075;-43
2023/04/28 08:09:45;;;;;;;6.72;2.70;;;;;;;11.29;44.25;101580.59;5122963;27;20046;-45
2023/04/28 08:12:11;;;;;;;9.82;2.13;;;;;;;11.37;43.76;101582.88;5118442;27;20111;-44
2023/04/28 08:14:36;;;;;;;7.43;2.78;;;;;;;11.38;43.47;101581.94;5130229;27;20046;-43
2023/04/28 08:17:02;;;;;;;3.00;1.38;;;;;;;11.45;42.62;101575.44;5124742;27;20133;-44
2023/04/28 08:19:27;;;;;;;13.82;3.47;;;;;;;11.51;42.28;101577.78;5133009;27;20479;-44
2023/04/28 08:21:53;;;;;;;3.85;1.77;;;;;;;11.55;42.70;101576.72;5122854;27;20073;-42
2023/04/28 08:24:18;;;;;;;5.10;1.75;;;;;;;11.63;42.34;101578.13;5121771;27;20058;-44
2023/04/28 08:26:45;;;;;;;4.70;1.75;;;;;;;11.70;41.71;101576.91;5129039;27;20059;-45
2023/04/28 08:29:11;;;;;;;7.60;2.28;;;;;;;11.75;41.49;101580.16;5125823;27;20439;-44
2023/04/28 08:31:37;;;;;;;8.18;2.00;;;;;;;11.78;40.94;101577.38;5126025;27;20642;-42
2023/04/28 08:34:03;;;;;;;7.53;3.38;;;;;;;11.81;40.85;101569.31;5128518;27;20048;-44
2023/04/28 08:36:31;;;;;;;5.80;1.58;;;;;;;11.86;41.02;101576.97;5129889;27;20044;-43
2023/04/28 08:38:58;;;;;;;7.93;2.90;;;;;;;11.92;40.94;101574.06;5134206;27;20132;-42
2023/04/28 08:41:26;;;;;;;4.78;2.40;;;;;;;11.97;40.46;101566.75;5128833;27;20048;-44
2023/04/28 08:43:52;;;;;;;10.55;1.80;;;;;;;12.03;40.32;101560.31;5117074;27;20083;-44
2023/04/28 08:46:20;;;;;;;5.25;1.90;;;;;;;12.11;39.61;101563.44;5126993;27;20140;-44
2023/04/28 08:48:48;;;;;;;3.83;1.73;;;;;;;12.15;39.71;101554.44;5132117;27;20048;-44
2023/04/28 08:51:36;;;;;;;5.03;1.90;;;;;;;12.23;38.62;101551.41;5129060;27;20051;-42
2023/04/28 08:54:05;;;;;;;3.22;1.73;;;;;;;12.23;39.79;101546.13;5132737;27;20072;-44
2023/04/28 08:56:35;;;;;;;4.15;1.73;;;;;;;12.27;39.33;101550.31;5124972;27;21467;-44
2023/04/28 08:59:02;;;;;;;4.03;1.60;;;;;;;12.31;39.25;101543.09;5131196;27;20395;-44
2023/04/28 09:01:29;;;;;;;10.27;4.15;;;;;;;12.33;39.19;101538.56;5135580;27;20500;-44
2023/04/28 09:03:55;;;;;;;6.13;1.98;;;;;;;12.39;39.13;101540.91;5125517;27;20101;-45
2023/04/28 09:06:21;;;;;;;6.00;1.73;;;;;;;12.45;39.03;101537.94;5130645;27;20169;-45
2023/04/28 09:08:47;;;;;;;4.03;1.08;;;;;;;12.48;38.42;101537.75;5134654;27;20061;-42
2023/04/28 09:11:13;;;;;;;7.63;1.85;;;;;;;12.57;39.01;101527.66;5136572;27;20140;-46
2023/04/28 09:13:40;;;;;;;5.63;1.90;;;;;;;12.61;38.79;101534.50;5125097;27;20070;-43
2023/04/28 09:16:06;;;;;;;6.15;1.67;;;;;;;12.64;38.43;101532.53;5129769;27;20052;-45
2023/04/28 09:18:32;;;;;;;5.03;1.70;;;;;;;12.63;38.43;101528.19;5131779;27;20053;-45
2023/04/28 09:21:08;;;;;;;4.95;1.90;;;;;;;12.71;37.74;101524.25;5125759;27;20415;-43
2023/04/28 09:23:47;;;;;;;4.70;2.10;;;;;;;12.77;37.67;101522.16;5129632;27;20191;-45
2023/04/28 09:26:12;;;;;;;8.32;2.03;;;;;;;12.78;38.51;101521.19;5131935;27;20054;-42
2023/04/28 09:28:37;;;;;;;6.70;1.65;;;;;;;12.85;38.24;101523.53;5108341;27;20059;-42
2023/04/28 09:31:03;;;;;;;7.32;2.03;;;;;;;12.91;38.43;101524.03;5128324;27;20091;-42
2023/04/28 09:33:29;;;;;;;3.75;1.27;;;;;;;12.95;37.87;101517.66;5127829;27;20061;-42
2023/04/28 09:35:54;;;;;;;5.13;1.98;;;;;;;13.00;37.99;101509.47;5110744;27;20510;-44
2023/04/28 09:38:21;;;;;;;3.40;1.85;;;;;;;13.07;38.10;101515.25;5130080;27;20683;-42
2023/04/28 09:41:01;;;;;;;4.80;1.95;;;;;;;13.11;36.99;101506.22;5129508;27;20123;-42
2023/04/28 09:43:32;;;;;;;3.05;1.73;;;;;;;13.15;37.34;101501.59;5125625;27;20080;-45
2023/04/28 09:46:00;;;;;;;12.07;3.47;;;;;;;13.20;37.77;101504.84;5131673;27;20044;-42
2023/04/28 09:48:33;;;;;;;6.93;1.85;;;;;;;13.25;37.18;101501.00;5126154;27;20145;-43
2023/04/28 09:51:01;;;;;;;2.50;0.95;;;;;;;13.31;36.88;101486.59;5131275;27;20034;-43
2023/04/28 09:53:27;;;;;;;2.55;1.10;;;;;;;13.35;36.74;101481.97;5131252;27;20076;-44
2023/04/28 09:55:54;;;;;;;3.20;1.30;;;;;;;13.42;36.33;101491.28;5127150;27;20044;-42
2023/04/28 09:58:21;;;;;;;3.25;1.55;;;;;;;13.47;36.14;101485.72;5131569;27;20054;-44
2023/04/28 10:00:52;;;;;;;3.92;1.33;;;;;;;13.48;34.86;101487.44;5125661;27;20041;-45
2023/04/28 10:03:20;;;;;;;5.22;1.15;;;;;;;13.49;35.72;101489.16;5127710;27;20062;-42
2023/04/28 10:05:48;;;;;;;2.88;1.40;;;;;;;13.51;36.05;101479.34;5130487;27;20085;-44
2023/04/28 10:08:14;;;;;;;5.22;1.77;;;;;;;13.53;35.92;101485.38;5130693;27;20019;-42
2023/04/28 10:10:40;;;;;;;6.40;1.25;;;;;;;13.62;35.87;101476.03;5132085;27;20040;-41
2023/04/28 10:13:07;;;;;;;4.10;1.60;;;;;;;13.67;35.35;101464.28;5112701;27;20057;-42
2023/04/28 10:15:33;;;;;;;8.00;2.33;;;;;;;13.74;35.34;101455.94;5116979;27;20037;-45
2023/04/28 10:17:59;;;;;;;3.85;1.73;;;;;;;13.79;35.13;101457.38;5132636;27;20025;-46
2023/04/28 10:20:28;;;;;;;7.93;1.45;;;;;;;13.84;35.18;101451.84;5132465;27;20108;-44
2023/04/28 10:23:20;;;;;;;19.10;7.07;;;;;;;13.93;34.01;101451.25;5127015;27;20062;-46
2023/04/28 10:25:48;;;;;;;;;;;;;;;14.02;34.01;101447.22;5133051;27;20048;-45
2023/04/28 10:28:14;;;;;;;4.32;1.40;;;;;;;14.05;35.27;101436.44;5124502;27;19998;-42
2023/04/28 10:30:40;;;;;;;5.55;1.80;;;;;;;14.08;35.17;101438.88;5129828;27;20431;-44
2023/04/28 10:33:14;;;;;;;4.30;1.70;;;;;;;14.12;34.60;101432.47;5125450;27;20055;-46
2023/04/28 10:35:47;;;;;;;7.85;1.50;;;;;;;14.16;33.43;101433.97;5130969;27;20041;-42
2023/04/28 10:38:16;;;;;;;3.72;1.50;;;;;;;14.19;34.32;101432.94;5126492;27;20035;-46
2023/04/28 10:40:46;;;;;;;7.63;2.97;;;;;;;14.20;34.50;101425.84;5130216;27;20031;-43
2023/04/28 10:43:13;;;;;;;4.25;2.00;;;;;;;14.24;34.33;101428.22;5128229;27;20049;-43
2023/04/28 10:45:47;;;;;;;7.82;2.00;;;;;;;14.29;33.79;101415.50;5125109;27;20062;-46
2023/04/28 10:48:17;;;;;;;6.32;2.22;;;;;;;14.32;34.38;101415.31;5130623;27;20554;-45
2023/04/28 10:51:13;;;;;;;9.15;2.35;;;;;;;14.43;33.75;101413.81;5131718;27;20031;-42
2023/04/28 10:53:44;;;;;;;5.95;2.10;;;;;;;14.51;34.47;101410.69;5132023;27;20520;-42
2023/04/28 10:56:18;;;;;;;7.00;2.53;;;;;;;14.56;34.45;101401.50;5129107;27;20054;-42
2023/04/28 10:58:45;;;;;;;9.77;3.17;;;;;;;14.60;34.93;101402.97;5127752;27;20048;-43
2023/04/28 11:01:20;;;;;;;8.18;2.30;;;;;;;14.68;34.54;101399.03;5130238;27;21429;-44
2023/04/28 11:03:58;;;;;;;7.43;2.13;;;;;;;14.73;34.82;101394.28;5125878;27;20430;-47
2023/04/28 11:06:27;;;;;;;5.80;2.28;;;;;;;14.82;34.94;101400.78;5128445;27;20048;-44
2023/04/28 11:08:55;;;;;;;6.20;2.67;;;;;;;14.87;34.93;101394.25;5131676;27;20019;-44
2023/04/28 11:11:24;;;;;;;6.35;2.72;;;;;;;14.97;34.58;101390.97;5129886;27;20088;-42
2023/04/28 11:13:51;;;;;;;5.32;2.33;;;;;;;15.00;35.05;101388.13;5131346;27;20070;-45
2023/04/28 11:16:19;;;;;;;11.23;2.42;;;;;;;15.05;34.73;101380.72;5124391;27;20023;-42
2023/04/28 11:18:55;;;;;;;4.72;2.17;;;;;;;15.11;34.68;101385.59;5109854;27;20408;-45
2023/04/28 11:21:22;;;;;;;8.35;2.95;;;;;;;15.15;34.94;101375.63;5129079;27;20037;-43
2023/04/28 11:23:48;;;;;;;6.88;2.30;;;;;;;15.22;34.93;101369.81;5125354;27;20059;-42